createdAt,value
2023-08-17T00:00:23.374Z,7.18
2023-08-17T00:03:25.810Z,8.30
2023-08-17T00:06:28.326Z,9.52
2023-08-17T00:09:30.823Z,6.93
2023-08-17T00:12:33.369Z,8.83
2023-08-17T00:15:35.868Z,8.82
2023-08-17T00:18:38.274Z,8.32
2023-08-17T00:21:40.631Z,7.97
2023-08-17T00:24:45.507Z,9.55
2023-08-17T00:27:47.890Z,8.88
2023-08-17T00:30:53.392Z,8.15
2023-08-17T00:33:55.849Z,7.77
2023-08-17T00:36:58.205Z,8.57
2023-08-17T00:40:00.703Z,8.60
2023-08-17T00:43:03.161Z,9.33
2023-08-17T00:46:05.962Z,8.18
2023-08-17T00:49:11.157Z,9.23
2023-08-17T00:52:13.674Z,12.15
2023-08-17T00:55:18.575Z,10.52
2023-08-17T00:58:22.426Z,16.85
2023-08-17T01:01:25.242Z,14.75
2023-08-17T01:04:27.660Z,12.67
2023-08-17T01:07:30.159Z,11.35
2023-08-17T01:10:46.068Z,8.85
2023-08-17T01:14:03.689Z,22.03
2023-08-17T01:17:18.909Z,17.25
2023-08-17T01:20:24.273Z,11.13
2023-08-17T01:23:26.734Z,12.07
2023-08-17T01:26:29.135Z,11.85
2023-08-17T01:29:31.846Z,8.43
2023-08-17T01:32:44.846Z,9.32
2023-08-17T01:36:13.769Z,7.00
2023-08-17T01:39:18.079Z,8.43
2023-08-17T01:42:21.813Z,8.52
2023-08-17T01:45:24.365Z,8.67
2023-08-17T01:48:26.726Z,9.18
2023-08-17T01:51:29.152Z,8.52
2023-08-17T01:54:31.645Z,8.73
2023-08-17T01:57:34.031Z,9.60
2023-08-17T02:00:36.421Z,9.45
2023-08-17T02:03:38.870Z,8.45
2023-08-17T02:06:41.337Z,9.30
2023-08-17T02:09:44.256Z,10.25
2023-08-17T02:12:48.121Z,8.60
2023-08-17T02:15:50.537Z,9.93
2023-08-17T02:18:52.995Z,8.63
2023-08-17T02:21:55.401Z,9.25
2023-08-17T02:24:57.878Z,8.82
2023-08-17T02:28:01.106Z,10.32
2023-08-17T02:31:03.561Z,10.05
2023-08-17T02:34:06.597Z,10.05
2023-08-17T02:37:09.104Z,10.83
2023-08-17T02:40:11.925Z,10.85
2023-08-17T02:43:14.328Z,10.80
2023-08-17T02:46:16.716Z,11.30
2023-08-17T02:49:19.852Z,9.63
2023-08-17T02:52:22.220Z,10.68
2023-08-17T02:55:24.753Z,8.90
2023-08-17T02:58:27.180Z,9.75
2023-08-17T03:01:31.075Z,11.38
2023-08-17T03:04:34.087Z,11.18
2023-08-17T03:07:36.501Z,10.80
2023-08-17T03:10:39.416Z,11.25
2023-08-17T03:13:41.795Z,9.20
2023-08-17T03:16:44.208Z,13.33
2023-08-17T03:19:46.656Z,10.10
2023-08-17T03:22:49.086Z,14.80
2023-08-17T03:25:55.441Z,12.88
2023-08-17T03:28:58.422Z,10.30
2023-08-17T03:32:00.851Z,11.15
2023-08-17T03:35:03.470Z,10.40
2023-08-17T03:38:05.857Z,9.30
2023-08-17T03:41:08.524Z,10.07
2023-08-17T03:44:11.175Z,10.85
2023-08-17T03:47:13.526Z,11.40
2023-08-17T03:50:15.941Z,10.50
2023-08-17T03:53:18.329Z,9.65
2023-08-17T03:56:20.740Z,11.98
2023-08-17T03:59:23.208Z,9.20
2023-08-17T04:02:26.424Z,13.30
2023-08-17T04:05:29.051Z,8.80
2023-08-17T04:08:31.492Z,11.63
2023-08-17T04:11:36.578Z,9.07
2023-08-17T04:14:38.966Z,9.40
2023-08-17T04:17:41.426Z,10.30
2023-08-17T04:20:43.860Z,9.30
2023-08-17T04:23:46.506Z,10.32
2023-08-17T04:26:48.913Z,12.27
2023-08-17T04:29:51.467Z,9.43
2023-08-17T04:32:54.895Z,10.05
2023-08-17T04:35:57.309Z,9.95
2023-08-17T04:38:59.924Z,8.20
2023-08-17T04:42:04.246Z,9.95
2023-08-17T04:45:09.759Z,10.30
2023-08-17T04:48:15.909Z,11.90
2023-08-17T04:51:19.309Z,11.57
2023-08-17T04:54:21.725Z,10.13
2023-08-17T04:57:24.483Z,9.20
2023-08-17T05:00:31.661Z,11.73
2023-08-17T05:03:34.863Z,11.48
2023-08-17T05:06:39.699Z,9.80
2023-08-17T05:09:42.148Z,11.43
2023-08-17T05:12:44.787Z,17.25
2023-08-17T05:15:47.934Z,10.18
2023-08-17T05:18:51.101Z,52.57
2023-08-17T05:21:54.851Z,101.57
2023-08-17T05:24:57.908Z,111.15
2023-08-17T05:28:00.509Z,81.53
2023-08-17T05:31:07.221Z,142.52
2023-08-17T05:34:12.444Z,67.88
2023-08-17T05:37:16.706Z,82.70
2023-08-17T05:40:19.385Z,230.20
2023-08-17T05:43:21.773Z,128.38
2023-08-17T05:46:24.175Z,64.75
2023-08-17T05:49:26.585Z,16.27
2023-08-17T05:52:29.108Z,18.33
2023-08-17T05:55:31.511Z,22.02
2023-08-17T05:58:33.946Z,20.17
2023-08-17T06:01:37.131Z,12.82
2023-08-17T06:04:39.535Z,9.85
2023-08-17T06:07:42.082Z,14.02
2023-08-17T06:10:44.453Z,40.33
2023-08-17T06:13:46.841Z,56.55
2023-08-17T06:16:49.377Z,43.10
2023-08-17T06:19:51.890Z,26.17
2023-08-17T06:22:54.252Z,28.55
2023-08-17T06:25:59.928Z,69.18
2023-08-17T06:29:04.368Z,43.10
2023-08-17T06:32:07.546Z,24.48
2023-08-17T06:35:10.182Z,10.13
2023-08-17T06:38:13.183Z,9.32
2023-08-17T06:41:15.600Z,11.83
2023-08-17T06:44:18.015Z,12.70
2023-08-17T06:47:20.370Z,36.20
2023-08-17T06:50:22.775Z,20.13
2023-08-17T06:53:25.146Z,22.10
2023-08-17T06:56:27.520Z,22.90
2023-08-17T06:59:29.908Z,10.85
2023-08-17T07:02:46.606Z,12.30
2023-08-17T07:05:53.607Z,23.38
2023-08-17T07:08:56.190Z,17.73
2023-08-17T07:11:58.644Z,15.73
2023-08-17T07:15:01.075Z,17.05
2023-08-17T07:18:03.658Z,22.30
2023-08-17T07:21:06.058Z,30.93
2023-08-17T07:24:16.135Z,19.45
2023-08-17T07:27:18.511Z,68.03
2023-08-17T07:30:20.948Z,30.75
2023-08-17T07:33:23.413Z,18.90
2023-08-17T07:36:25.772Z,15.88
2023-08-17T07:39:28.268Z,12.18
2023-08-17T07:42:30.762Z,15.30
2023-08-17T07:45:33.218Z,14.25
2023-08-17T07:48:35.611Z,12.30
2023-08-17T07:51:37.987Z,14.77
2023-08-17T07:54:40.398Z,20.90
2023-08-17T07:57:42.794Z,16.23
2023-08-17T08:00:45.177Z,14.15
2023-08-17T08:03:47.774Z,12.25
2023-08-17T08:06:50.135Z,13.43
2023-08-17T08:09:52.490Z,13.65
2023-08-17T08:12:55.419Z,14.30
2023-08-17T08:15:59.882Z,13.68
2023-08-17T08:19:02.632Z,12.65
2023-08-17T08:22:05.117Z,14.17
2023-08-17T08:25:07.867Z,16.55
2023-08-17T08:28:10.429Z,14.55
2023-08-17T08:31:13.023Z,14.02
2023-08-17T08:34:15.565Z,15.55
2023-08-17T08:37:17.970Z,14.13
2023-08-17T08:40:21.312Z,11.88
2023-08-17T08:43:24.373Z,13.17
2023-08-17T08:46:31.088Z,15.82
2023-08-17T08:49:42.203Z,13.60
2023-08-17T08:53:07.362Z,12.90
2023-08-17T08:56:13.785Z,20.00
2023-08-17T08:59:17.887Z,17.05
2023-08-17T09:02:20.450Z,13.90
2023-08-17T09:05:23.535Z,16.88
2023-08-17T09:08:31.297Z,15.45
2023-08-17T09:11:33.682Z,13.20
2023-08-17T09:14:38.342Z,11.57
2023-08-17T09:17:40.860Z,11.98
2023-08-17T09:20:48.816Z,20.25
2023-08-17T09:27:01.619Z,16.33
2023-08-17T09:30:10.604Z,15.82
2023-08-17T09:33:13.020Z,15.50
2023-08-17T09:36:15.454Z,14.68
2023-08-17T09:39:19.196Z,12.00
2023-08-17T09:42:23.748Z,14.48
2023-08-17T09:45:28.652Z,13.30
2023-08-17T09:48:33.387Z,12.07
2023-08-17T09:51:36.283Z,11.23
2023-08-17T09:54:39.617Z,12.70
2023-08-17T09:57:43.161Z,10.75
2023-08-17T10:00:51.485Z,11.00
2023-08-17T10:03:56.757Z,9.13
2023-08-17T10:07:05.042Z,12.38
2023-08-17T10:10:08.517Z,8.77
2023-08-17T10:13:14.489Z,11.57
2023-08-17T10:16:34.524Z,8.67
2023-08-17T10:19:53.191Z,14.52
2023-08-17T10:23:02.124Z,9.13
2023-08-17T10:26:05.949Z,8.90
2023-08-17T10:29:15.472Z,8.55
2023-08-17T10:32:19.776Z,10.88
2023-08-17T10:35:22.489Z,10.20
2023-08-17T10:38:25.204Z,13.85
2023-08-17T10:41:27.625Z,10.05
2023-08-17T10:44:42.569Z,11.05
2023-08-17T10:47:45.125Z,9.50
2023-08-17T10:51:03.470Z,8.90
2023-08-17T10:54:06.536Z,12.07
2023-08-17T10:57:33.573Z,7.57
2023-08-17T11:00:37.649Z,8.23
2023-08-17T11:03:42.472Z,9.38
2023-08-17T11:06:46.249Z,8.50
2023-08-17T11:09:48.880Z,8.73
2023-08-17T11:12:57.929Z,8.73
2023-08-17T11:16:04.611Z,7.82
2023-08-17T11:19:13.614Z,6.27
2023-08-17T11:22:19.942Z,7.82
2023-08-17T11:25:22.747Z,5.63
2023-08-17T11:28:25.490Z,6.47
2023-08-17T11:31:27.914Z,7.07
2023-08-17T11:34:30.817Z,8.07
2023-08-17T11:37:34.004Z,6.78
2023-08-17T11:40:37.257Z,5.47
2023-08-17T11:43:39.633Z,6.55
2023-08-17T11:46:42.207Z,9.68
2023-08-17T11:49:48.311Z,9.53
2023-08-17T11:52:50.740Z,10.63
2023-08-17T11:55:56.285Z,7.32
2023-08-17T11:58:59.625Z,7.60
2023-08-17T12:02:02.088Z,6.57
2023-08-17T12:05:08.616Z,9.32
2023-08-17T12:08:11.340Z,7.55
2023-08-17T12:11:13.855Z,7.60
2023-08-17T12:14:16.326Z,11.15
2023-08-17T12:17:20.277Z,9.88
2023-08-17T12:20:23.042Z,13.50
2023-08-17T12:23:25.552Z,11.65
2023-08-17T12:26:28.826Z,9.27
2023-08-17T12:29:31.258Z,8.03
2023-08-17T12:32:33.662Z,9.35
2023-08-17T12:35:36.164Z,9.07
2023-08-17T12:38:43.162Z,8.00
2023-08-17T12:41:45.587Z,7.35
2023-08-17T12:44:47.951Z,7.13
2023-08-17T12:47:50.335Z,9.95
2023-08-17T12:50:52.759Z,8.97
2023-08-17T12:53:55.292Z,8.93
2023-08-17T12:56:59.507Z,12.35
2023-08-17T13:00:02.652Z,8.77
2023-08-17T13:03:05.550Z,8.57
2023-08-17T13:06:08.846Z,7.18
2023-08-17T13:09:12.315Z,9.05
2023-08-17T13:12:14.786Z,9.45
2023-08-17T13:15:17.322Z,10.43
2023-08-17T13:18:19.848Z,8.77
2023-08-17T13:21:22.208Z,18.63
2023-08-17T13:24:24.703Z,8.93
2023-08-17T13:27:27.201Z,11.02
2023-08-17T13:30:29.720Z,12.20
2023-08-17T13:33:32.275Z,10.07
2023-08-17T13:36:34.858Z,10.80
2023-08-17T13:39:37.263Z,10.65
2023-08-17T13:42:39.607Z,11.05
2023-08-17T13:45:42.121Z,11.05
2023-08-17T13:48:44.523Z,10.68
2023-08-17T13:51:46.896Z,11.70
2023-08-17T13:54:49.568Z,12.98
2023-08-17T13:57:53.972Z,7.75
2023-08-17T14:00:56.434Z,7.67
2023-08-17T14:03:58.896Z,7.60
2023-08-17T14:07:01.309Z,8.43
2023-08-17T14:10:09.024Z,9.30
2023-08-17T14:13:13.250Z,10.90
2023-08-17T14:16:15.770Z,9.35
2023-08-17T14:19:18.158Z,7.60
2023-08-17T14:22:20.560Z,7.97
2023-08-17T14:25:24.067Z,7.53
2023-08-17T14:28:27.703Z,10.68
2023-08-17T14:31:30.442Z,7.77
2023-08-17T14:34:32.860Z,10.35
2023-08-17T14:37:35.566Z,7.38
2023-08-17T14:40:42.793Z,7.15
2023-08-17T14:43:45.533Z,6.35
2023-08-17T14:46:47.916Z,8.27
2023-08-17T14:49:50.266Z,9.25
2023-08-17T14:52:52.671Z,8.67
2023-08-17T14:55:55.384Z,7.75
2023-08-17T14:58:57.847Z,6.18
2023-08-17T15:02:00.230Z,8.40
2023-08-17T15:05:02.777Z,6.60
2023-08-17T15:08:05.564Z,9.30
2023-08-17T15:11:07.984Z,7.22
2023-08-17T15:14:16.146Z,7.63
2023-08-17T15:17:18.921Z,6.55
2023-08-17T15:20:21.336Z,10.63
2023-08-17T15:23:23.691Z,7.03
2023-08-17T15:26:26.087Z,6.18
2023-08-17T15:29:28.676Z,6.90
2023-08-17T15:32:31.367Z,8.83
2023-08-17T15:35:33.767Z,7.88
2023-08-17T15:38:36.144Z,8.20
2023-08-17T15:41:38.608Z,7.35
2023-08-17T15:44:40.983Z,10.25
2023-08-17T15:47:43.333Z,9.35
2023-08-17T15:50:45.683Z,8.20
2023-08-17T15:53:48.046Z,8.33
2023-08-17T15:56:50.782Z,7.95
2023-08-17T15:59:53.541Z,8.60
2023-08-17T16:02:55.959Z,6.53
2023-08-17T16:05:58.506Z,9.60
2023-08-17T16:09:00.946Z,7.28
2023-08-17T16:12:03.610Z,7.63
2023-08-17T16:15:06.663Z,9.98
2023-08-17T16:18:09.142Z,10.45
2023-08-17T16:24:16.897Z,8.87
2023-08-17T16:27:19.278Z,8.25
2023-08-17T16:30:21.833Z,8.35
2023-08-17T16:33:24.528Z,8.33
2023-08-17T16:36:27.259Z,9.80
2023-08-17T16:39:29.877Z,7.75
2023-08-17T16:42:32.441Z,8.20
2023-08-17T16:45:35.094Z,9.00
2023-08-17T16:48:37.717Z,6.88
2023-08-17T16:51:41.142Z,6.68
2023-08-17T16:54:47.383Z,6.63
2023-08-17T16:57:50.466Z,8.15
2023-08-17T17:00:53.260Z,7.25
2023-08-17T17:03:55.729Z,6.97
2023-08-17T17:06:58.134Z,5.18
2023-08-17T17:10:00.504Z,8.70
2023-08-17T17:13:02.926Z,6.80
2023-08-17T17:16:05.428Z,6.25
2023-08-17T17:19:07.793Z,8.20
2023-08-17T17:22:10.179Z,5.88
2023-08-17T17:25:12.612Z,5.67
2023-08-17T17:28:14.995Z,6.47
2023-08-17T17:31:17.457Z,6.93
2023-08-17T17:34:20.701Z,7.87
2023-08-17T17:37:23.369Z,6.38
2023-08-17T17:40:25.788Z,7.90
2023-08-17T17:43:28.354Z,6.13
2023-08-17T17:46:30.961Z,6.90
2023-08-17T17:49:33.335Z,7.72
2023-08-17T17:52:35.844Z,8.68
2023-08-17T17:55:38.454Z,6.83
2023-08-17T17:58:40.885Z,6.82
2023-08-17T18:01:43.468Z,8.75
2023-08-17T18:04:45.898Z,8.30
2023-08-17T18:07:48.392Z,5.82
2023-08-17T18:10:51.052Z,6.95
2023-08-17T18:13:53.707Z,6.95
2023-08-17T18:16:56.115Z,6.30
2023-08-17T18:19:58.578Z,6.63
2023-08-17T18:23:01.030Z,7.03
2023-08-17T18:26:03.609Z,6.83
2023-08-17T18:29:06.601Z,8.27
2023-08-17T18:32:08.982Z,7.60
2023-08-17T18:35:11.622Z,7.87
2023-08-17T18:38:14.022Z,6.40
2023-08-17T18:41:16.854Z,7.95
2023-08-17T18:44:19.331Z,9.07
2023-08-17T18:47:23.000Z,8.48
2023-08-17T18:50:28.739Z,6.40
2023-08-17T18:53:31.141Z,9.65
2023-08-17T18:56:33.559Z,7.00
2023-08-17T18:59:36.207Z,7.63
2023-08-17T19:02:41.693Z,5.57
2023-08-17T19:05:44.231Z,6.60
2023-08-17T19:08:46.632Z,7.85
2023-08-17T19:11:49.031Z,8.15
2023-08-17T19:14:51.448Z,6.78
2023-08-17T19:17:53.891Z,6.63
2023-08-17T19:20:56.261Z,7.97
2023-08-17T19:23:58.651Z,8.10
2023-08-17T19:27:01.375Z,7.63
2023-08-17T19:30:04.332Z,8.43
2023-08-17T19:33:07.188Z,8.00
2023-08-17T19:36:09.859Z,6.93
2023-08-17T19:39:12.506Z,5.65
2023-08-17T19:42:14.923Z,7.90
2023-08-17T19:45:19.131Z,6.90
2023-08-17T19:48:21.666Z,7.00
2023-08-17T19:51:24.479Z,6.60
2023-08-17T19:54:26.922Z,7.28
2023-08-17T19:57:30.632Z,5.90
2023-08-17T20:00:33.349Z,7.05
2023-08-17T20:03:36.140Z,7.07
2023-08-17T20:06:39.033Z,6.60
2023-08-17T20:09:41.743Z,7.10
2023-08-17T20:12:44.190Z,6.85
2023-08-17T20:15:46.743Z,6.57
2023-08-17T20:18:49.533Z,5.90
2023-08-17T20:21:51.941Z,6.25
2023-08-17T20:24:54.628Z,8.43
2023-08-17T20:27:57.258Z,9.17
2023-08-17T20:31:00.057Z,8.88
2023-08-17T20:34:02.519Z,9.57
2023-08-17T20:37:05.175Z,7.63
2023-08-17T20:40:09.300Z,8.77
2023-08-17T20:43:12.239Z,10.70
2023-08-17T20:46:14.785Z,8.43
2023-08-17T20:49:17.317Z,9.15
2023-08-17T20:52:19.753Z,11.57
2023-08-17T20:55:23.518Z,7.80
2023-08-17T20:58:25.894Z,10.83
2023-08-17T21:01:28.332Z,6.70
2023-08-17T21:04:30.750Z,8.25
2023-08-17T21:07:33.438Z,8.00
2023-08-17T21:10:36.365Z,7.70
2023-08-17T21:13:39.332Z,9.00
2023-08-17T21:16:41.851Z,8.75
2023-08-17T21:19:44.839Z,8.52
2023-08-17T21:22:51.359Z,8.85
2023-08-17T21:25:53.811Z,7.43
2023-08-17T21:28:56.175Z,9.07
2023-08-17T21:31:58.520Z,8.10
2023-08-17T21:35:00.858Z,7.88
2023-08-17T21:38:04.596Z,8.20
2023-08-17T21:41:07.083Z,9.55
2023-08-17T21:44:09.520Z,7.35
2023-08-17T21:47:11.911Z,6.93
2023-08-17T21:50:14.297Z,8.07
2023-08-17T21:53:16.889Z,7.97
2023-08-17T21:56:19.291Z,9.73
2023-08-17T21:59:21.679Z,7.57
2023-08-17T22:02:24.066Z,8.77
2023-08-17T22:05:26.411Z,6.38
2023-08-17T22:08:28.752Z,7.67
2023-08-17T22:11:31.112Z,9.25
2023-08-17T22:14:33.515Z,8.88
2023-08-17T22:17:35.932Z,7.93
2023-08-17T22:20:41.323Z,7.45
2023-08-17T22:23:43.930Z,8.25
2023-08-17T22:26:46.318Z,8.45
2023-08-17T22:29:48.691Z,6.60
2023-08-17T22:32:51.136Z,7.72
2023-08-17T22:35:53.547Z,7.88
2023-08-17T22:38:56.059Z,7.60
2023-08-17T22:41:58.497Z,7.43
2023-08-17T22:45:00.893Z,7.60
2023-08-17T22:48:03.499Z,7.07
2023-08-17T22:51:05.912Z,7.65
2023-08-17T22:54:11.705Z,10.27
2023-08-17T22:57:14.061Z,8.63
2023-08-17T23:00:16.546Z,9.07
2023-08-17T23:03:18.930Z,8.98
2023-08-17T23:06:21.477Z,7.43
2023-08-17T23:09:23.914Z,7.37
2023-08-17T23:12:26.266Z,6.65
2023-08-17T23:15:28.986Z,8.77
2023-08-17T23:18:31.465Z,6.88
2023-08-17T23:21:33.831Z,8.35
2023-08-17T23:24:38.517Z,7.00
2023-08-17T23:27:41.310Z,10.05
2023-08-17T23:30:43.768Z,7.60
2023-08-17T23:33:46.152Z,7.75
2023-08-17T23:36:48.569Z,7.15
2023-08-17T23:39:51.022Z,8.00
2023-08-17T23:42:53.534Z,9.00
2023-08-17T23:45:55.967Z,8.27
2023-08-17T23:48:58.445Z,7.65
2023-08-17T23:52:00.885Z,8.75
2023-08-17T23:55:04.450Z,9.18
2023-08-17T23:58:06.864Z,7.95
